Nearby METAR Reports

 

KXLL - Allentown Queen, Pennsylvania, USA
Distance from station: E 6mi, 10km
Updated: Mon, 22-Jan-2018 9:15am EST
Mist, Overcast
Mist, Overcast
 Wind from calm
Wind: Calm
Temperature: 41°F , 5°C
Dew Point: 39°F , 4°C
Humidity: 93%
Barometer: 30.18 inHg , 1022 hPa
Summary: Mist
Clouds: Overcast
Visibility: 5 miles , 8 km
Cloud details: Partly cloudy 3800 ft
Overcast 11000 ft
2018/01/22 14:15 KXLL 221415Z AUTO 00000KT 5SM BR SCT038 OVC110 05/04 A3018 RMK AO2
KABE - Allentown, Pennsylvania, USA
Distance from station: NE 10mi, 17km
Updated: Mon, 22-Jan-2018 8:51am EST
Haze, Overcast
Haze, Overcast
 Wind from ENE
Wind: ENE 3 mph , 6 km/h
Temperature: 43°F , 6°C
Dew Point: 37°F , 3°C
Humidity: 81%
Barometer: 30.17 inHg , 1021.7 hPa
Summary: Haze
Clouds: Overcast
Visibility: 5 miles , 8 km
Cloud details: Mostly cloudy 3800 ft
Overcast 10000 ft
2018/01/22 13:51 KABE 221351Z 07003KT 5SM HZ BKN038 OVC100 06/03 A3017 RMK AO2 SLP219 T00560028
 
KUKT - Quakertown Arp, Pennsylvania, USA
Distance from station: SE 14mi, 23km
Updated: Sun, 21-Jan-2018 5:15pm EST
NOT Current
Mostly cloudy
Mostly cloudy
 
Temperature: 45°F , 7°C
Dew Point: 39°F , 4°C
Humidity: 81%
Barometer: 30.15 inHg , 1021 hPa
Clouds: Mostly cloudy
Visibility: 10 miles , 16 km
Cloud details: Mostly cloudy 3300 ft
Mostly cloudy 7000 ft
2018/01/21 22:15 KUKT 212215Z AUTO 10SM BKN033 BKN070 07/04 A3015 RMK AO1
KPTW - Pottstown, Pennsylvania, USA
Distance from station: S 22mi, 36km
Updated: Mon, 22-Jan-2018 8:54am EST
Mist, Overcast
Mist, Overcast
 Wind from calm
Wind: Calm
Temperature: 43°F , 6°C
Dew Point: 39°F , 4°C
Humidity: 87%
Barometer: 30.17 inHg , 1021.7 hPa
Summary: Mist
Clouds: Overcast
Visibility: 4 miles , 6 km
Cloud details: Overcast 10000 ft
2018/01/22 13:54 KPTW 221354Z AUTO 00000KT 4SM BR OVC100 06/04 A3017 RMK AO2 SLP217 T00560039
 
KRDG - Reading, Pennsylvania, USA
Distance from station: SW 23mi, 37km
Updated: Mon, 22-Jan-2018 8:54am EST
Mist, Overcast
Mist, Overcast
 Wind from calm
Wind: Calm
Temperature: 39°F , 4°C
Dew Point: 39°F , 4°C
Humidity: 100%
Barometer: 30.15 inHg , 1021 hPa
Summary: Mist
Clouds: Overcast
Visibility: 4 miles , 6 km
Cloud details: Overcast 10000 ft
2018/01/22 13:54 KRDG 221354Z 00000KT 4SM BR OVC100 04/04 A3015 RMK AO2 SLP215 T00440039
KDYL - Doylestown, Pennsylvania, USA
Distance from station: ESE 30mi, 48km
Updated: Mon, 22-Jan-2018 8:54am EST
Overcast
Overcast
 Wind from calm
Wind: Calm
Temperature: 43°F , 6°C
Dew Point: 37°F , 3°C
Humidity: 81%
Barometer: 30.16 inHg , 1021.3 hPa
Clouds: Overcast
Visibility: 10 miles , 16 km
Cloud details: Overcast 10000 ft
2018/01/22 13:54 KDYL 221354Z AUTO 00000KT 10SM OVC100 06/03 A3016 RMK AO2 SLP216 T00560033
 
KLOM - Philly Wings F, Pennsylvania, USA
Distance from station: SSE 34mi, 55km
Updated: Mon, 22-Jan-2018 9:15am EST
Overcast
Overcast
 Wind from calm
Wind: Calm
Temperature: 43°F , 6°C
Dew Point: 37°F , 3°C
Humidity: 81%
Barometer: 30.19 inHg , 1022.4 hPa
Clouds: Overcast
Visibility: 10 miles , 16 km
Cloud details: Overcast 9500 ft
2018/01/22 14:15 KLOM 221415Z AUTO 00000KT 10SM OVC095 06/03 A3019 RMK AO1
KMPO - Mt. Pocono, Pennsylvania, USA
Distance from station: NNE 42mi, 67km
Updated: Mon, 22-Jan-2018 9:29am EST
Mist, Overcast
Mist, Overcast
 Wind from calm
Wind: Calm
Temperature: 45°F , 7°C
Dew Point: 45°F , 7°C
Humidity: 100%
Barometer: 30.13 inHg , 1020.3 hPa
Summary: Mist
Clouds: Overcast
Visibility: 2 miles , 3 km
Cloud details: Partly cloudy 700 ft
Mostly cloudy 5000 ft
Overcast 8000 ft
2018/01/22 14:29 KMPO 221429Z AUTO 00000KT 2SM BR SCT007 BKN050 OVC080 07/07 A3013 RMK AO2 T00670067
 
KMQS - Coatesville, Pennsylvania, USA
Distance from station: SSW 42mi, 67km
Updated: Mon, 22-Jan-2018 9:15am EST
Few Clouds
Few Clouds
 Wind from calm
Wind: Calm
Temperature: 45°F , 7°C
Dew Point: 41°F , 5°C
Humidity: 87%
Barometer: 30.16 inHg , 1021.3 hPa
Clouds: Few Clouds
Visibility: 10 miles , 16 km
Cloud details: Few Clouds 10000 ft
2018/01/22 14:15 KMQS 221415Z AUTO 00000KT 10SM FEW100 07/05 A3016 RMK AO2
KPNE - Philadelphia/Ne, Pennsylvania, USA
Distance from station: SE 45mi, 72km
Updated: Mon, 22-Jan-2018 8:54am EST
Overcast
Overcast
 Wind from calm
Wind: Calm
Temperature: 46°F , 8°C
Dew Point: 39°F , 4°C
Humidity: 76%
Barometer: 30.19 inHg , 1022.4 hPa
Clouds: Overcast
Visibility: 9 miles , 14 km
Cloud details: Overcast 10000 ft
2018/01/22 13:54 KPNE 221354Z 00000KT 9SM OVC100 08/04 A3019 RMK AO2 SLP223 T00830039
 
KTTN - Trenton, New Jersey, USA
Distance from station: ESE 45mi, 73km
Updated: Mon, 22-Jan-2018 8:53am EST
Overcast
Overcast
 Wind from calm
Wind: Calm
Temperature: 45°F , 7°C
Dew Point: 37°F , 3°C
Humidity: 76%
Barometer: 30.17 inHg , 1021.7 hPa
Clouds: Overcast
Visibility: 10 miles , 16 km
Cloud details: Overcast 10000 ft
2018/01/22 13:53 KTTN 221353Z 00000KT 10SM OVC100 07/03 A3017 RMK AO2 SLP211 T00720033
KLNS - Lancaster, Pennsylvania, USA
Distance from station: SW 48mi, 76km
Updated: Mon, 22-Jan-2018 8:53am EST
Mist, Overcast
Mist, Overcast
 Wind from calm
Wind: Calm
Temperature: 43°F , 6°C
Dew Point: 39°F , 4°C
Humidity: 87%
Barometer: 30.14 inHg , 1020.7 hPa
Summary: Mist
Clouds: Overcast
Visibility: 5 miles , 8 km
Cloud details: Overcast 11000 ft
2018/01/22 13:53 KLNS 221353Z 00000KT 5SM BR OVC110 06/04 A3014 RMK AO2 SLP209 T00560044